sensor_id;sensor_type;location;lat;lon;timestamp;temperature;humidity
3550;DHT22;45572;48.804;8.330;2023-02-17T00:00:54;13.40;61.70
3550;DHT22;45572;48.804;8.330;2023-02-17T00:03:22;13.40;61.90
3550;DHT22;45572;48.804;8.330;2023-02-17T00:05:52;13.40;61.80
3550;DHT22;45572;48.804;8.330;2023-02-17T00:08:20;13.40;61.50
3550;DHT22;45572;48.804;8.330;2023-02-17T00:10:56;13.40;61.90
3550;DHT22;45572;48.804;8.330;2023-02-17T00:13:25;13.40;62.20
3550;DHT22;45572;48.804;8.330;2023-02-17T00:15:53;13.40;62.00
3550;DHT22;45572;48.804;8.330;2023-02-17T00:18:21;13.40;62.00
3550;DHT22;45572;48.804;8.330;2023-02-17T00:20:49;13.40;62.50
3550;DHT22;45572;48.804;8.330;2023-02-17T00:23:17;13.40;62.50
3550;DHT22;45572;48.804;8.330;2023-02-17T00:25:45;13.40;62.30
3550;DHT22;45572;48.804;8.330;2023-02-17T00:28:13;13.40;61.90
3550;DHT22;45572;48.804;8.330;2023-02-17T00:30:42;13.40;62.30
3550;DHT22;45572;48.804;8.330;2023-02-17T00:33:09;13.40;62.50
3550;DHT22;45572;48.804;8.330;2023-02-17T00:35:39;13.40;62.80
3550;DHT22;45572;48.804;8.330;2023-02-17T00:38:07;13.40;62.80
3550;DHT22;45572;48.804;8.330;2023-02-17T00:40:35;13.40;62.80
3550;DHT22;45572;48.804;8.330;2023-02-17T00:43:04;13.40;62.50
3550;DHT22;45572;48.804;8.330;2023-02-17T00:45:32;13.40;62.80
3550;DHT22;45572;48.804;8.330;2023-02-17T00:48:01;13.40;63.40
3550;DHT22;45572;48.804;8.330;2023-02-17T00:50:29;13.40;63.00
3550;DHT22;45572;48.804;8.330;2023-02-17T00:52:56;13.40;63.20
3550;DHT22;45572;48.804;8.330;2023-02-17T00:55:24;13.40;63.10
3550;DHT22;45572;48.804;8.330;2023-02-17T00:57:52;13.30;63.40
3550;DHT22;45572;48.804;8.330;2023-02-17T01:00:20;13.30;63.20
3550;DHT22;45572;48.804;8.330;2023-02-17T01:02:48;13.30;63.10
3550;DHT22;45572;48.804;8.330;2023-02-17T01:05:17;13.30;63.10
3550;DHT22;45572;48.804;8.330;2023-02-17T01:07:45;13.30;63.10
3550;DHT22;45572;48.804;8.330;2023-02-17T01:10:13;13.30;63.10
3550;DHT22;45572;48.804;8.330;2023-02-17T01:12:40;13.30;63.60
3550;DHT22;45572;48.804;8.330;2023-02-17T01:15:09;13.30;63.50
3550;DHT22;45572;48.804;8.330;2023-02-17T01:17:36;13.30;63.60
3550;DHT22;45572;48.804;8.330;2023-02-17T01:20:05;13.30;64.00
3550;DHT22;45572;48.804;8.330;2023-02-17T01:22:37;13.30;63.80
3550;DHT22;45572;48.804;8.330;2023-02-17T01:25:06;13.30;63.90
3550;DHT22;45572;48.804;8.330;2023-02-17T01:27:34;13.30;63.80
3550;DHT22;45572;48.804;8.330;2023-02-17T01:30:03;13.30;63.80
3550;DHT22;45572;48.804;8.330;2023-02-17T01:32:31;13.40;63.40
3550;DHT22;45572;48.804;8.330;2023-02-17T01:34:59;13.30;63.70
3550;DHT22;45572;48.804;8.330;2023-02-17T01:37:27;13.40;63.50
3550;DHT22;45572;48.804;8.330;2023-02-17T01:39:56;13.30;63.40
3550;DHT22;45572;48.804;8.330;2023-02-17T01:42:24;13.40;63.60
3550;DHT22;45572;48.804;8.330;2023-02-17T01:45:23;13.30;63.70
3550;DHT22;45572;48.804;8.330;2023-02-17T01:47:57;13.30;63.70
3550;DHT22;45572;48.804;8.330;2023-02-17T01:50:30;13.30;63.80
3550;DHT22;45572;48.804;8.330;2023-02-17T01:53:00;13.20;64.00
3550;DHT22;45572;48.804;8.330;2023-02-17T01:55:31;13.20;63.90
3550;DHT22;45572;48.804;8.330;2023-02-17T01:58:02;13.20;64.10
3550;DHT22;45572;48.804;8.330;2023-02-17T02:00:32;13.20;64.30
3550;DHT22;45572;48.804;8.330;2023-02-17T02:03:01;13.20;64.00
3550;DHT22;45572;48.804;8.330;2023-02-17T02:05:29;13.20;64.00
3550;DHT22;45572;48.804;8.330;2023-02-17T02:07:59;13.20;64.10
3550;DHT22;45572;48.804;8.330;2023-02-17T02:10:26;13.20;64.20
3550;DHT22;45572;48.804;8.330;2023-02-17T02:12:56;13.20;64.70
3550;DHT22;45572;48.804;8.330;2023-02-17T02:15:28;13.10;64.70
3550;DHT22;45572;48.804;8.330;2023-02-17T02:18:17;13.10;64.70
3550;DHT22;45572;48.804;8.330;2023-02-17T02:21:06;13.10;64.90
3550;DHT22;45572;48.804;8.330;2023-02-17T02:23:52;13.10;64.80
3550;DHT22;45572;48.804;8.330;2023-02-17T02:26:42;13.00;65.10
3550;DHT22;45572;48.804;8.330;2023-02-17T02:29:33;13.00;65.60
3550;DHT22;45572;48.804;8.330;2023-02-17T02:32:30;12.90;65.60
3550;DHT22;45572;48.804;8.330;2023-02-17T02:35:06;12.90;65.60
3550;DHT22;45572;48.804;8.330;2023-02-17T02:37:40;12.80;65.40
3550;DHT22;45572;48.804;8.330;2023-02-17T02:40:11;12.90;65.80
3550;DHT22;45572;48.804;8.330;2023-02-17T02:42:41;12.80;65.50
3550;DHT22;45572;48.804;8.330;2023-02-17T02:45:10;12.70;65.80
3550;DHT22;45572;48.804;8.330;2023-02-17T02:47:45;12.60;66.10
3550;DHT22;45572;48.804;8.330;2023-02-17T02:50:19;12.50;66.40
3550;DHT22;45572;48.804;8.330;2023-02-17T02:52:59;12.50;66.90
3550;DHT22;45572;48.804;8.330;2023-02-17T02:55:40;12.40;66.90
3550;DHT22;45572;48.804;8.330;2023-02-17T02:58:18;12.40;68.30
3550;DHT22;45572;48.804;8.330;2023-02-17T03:00:53;12.30;68.50
3550;DHT22;45572;48.804;8.330;2023-02-17T03:03:29;12.20;68.70
3550;DHT22;45572;48.804;8.330;2023-02-17T03:06:05;12.20;68.80
3550;DHT22;45572;48.804;8.330;2023-02-17T03:08:38;12.20;69.00
3550;DHT22;45572;48.804;8.330;2023-02-17T03:11:07;12.20;68.90
3550;DHT22;45572;48.804;8.330;2023-02-17T03:13:35;12.10;69.00
3550;DHT22;45572;48.804;8.330;2023-02-17T03:16:07;12.10;70.00
3550;DHT22;45572;48.804;8.330;2023-02-17T03:18:38;12.10;71.10
3550;DHT22;45572;48.804;8.330;2023-02-17T03:21:12;12.10;72.20
3550;DHT22;45572;48.804;8.330;2023-02-17T03:23:42;12.10;72.30
3550;DHT22;45572;48.804;8.330;2023-02-17T03:26:09;12.10;72.60
3550;DHT22;45572;48.804;8.330;2023-02-17T03:28:37;12.00;73.00
3550;DHT22;45572;48.804;8.330;2023-02-17T03:31:06;12.00;73.40
3550;DHT22;45572;48.804;8.330;2023-02-17T03:33:33;11.90;74.20
3550;DHT22;45572;48.804;8.330;2023-02-17T03:36:03;11.90;76.00
3550;DHT22;45572;48.804;8.330;2023-02-17T03:38:31;11.80;76.50
3550;DHT22;45572;48.804;8.330;2023-02-17T03:40:59;11.80;77.10
3550;DHT22;45572;48.804;8.330;2023-02-17T03:43:26;11.80;77.40
3550;DHT22;45572;48.804;8.330;2023-02-17T03:45:54;11.80;77.50
3550;DHT22;45572;48.804;8.330;2023-02-17T03:48:22;11.90;77.70
3550;DHT22;45572;48.804;8.330;2023-02-17T03:50:49;11.80;78.00
3550;DHT22;45572;48.804;8.330;2023-02-17T03:53:18;11.80;78.00
3550;DHT22;45572;48.804;8.330;2023-02-17T03:55:46;11.80;78.30
3550;DHT22;45572;48.804;8.330;2023-02-17T03:58:14;11.80;78.80
3550;DHT22;45572;48.804;8.330;2023-02-17T04:00:42;11.80;79.00
3550;DHT22;45572;48.804;8.330;2023-02-17T04:03:09;11.80;79.10
3550;DHT22;45572;48.804;8.330;2023-02-17T04:05:37;11.80;79.30
3550;DHT22;45572;48.804;8.330;2023-02-17T04:08:05;11.80;79.10
3550;DHT22;45572;48.804;8.330;2023-02-17T04:10:34;11.80;78.70
3550;DHT22;45572;48.804;8.330;2023-02-17T04:13:01;11.80;78.60
3550;DHT22;45572;48.804;8.330;2023-02-17T04:15:29;11.80;78.50
3550;DHT22;45572;48.804;8.330;2023-02-17T04:17:57;11.80;78.60
3550;DHT22;45572;48.804;8.330;2023-02-17T04:20:24;11.90;78.40
3550;DHT22;45572;48.804;8.330;2023-02-17T04:22:52;11.90;78.20
3550;DHT22;45572;48.804;8.330;2023-02-17T04:25:20;11.90;77.90
3550;DHT22;45572;48.804;8.330;2023-02-17T04:27:50;12.00;78.10
3550;DHT22;45572;48.804;8.330;2023-02-17T04:30:18;12.00;78.10
3550;DHT22;45572;48.804;8.330;2023-02-17T04:32:45;12.00;77.50
3550;DHT22;45572;48.804;8.330;2023-02-17T04:35:13;12.00;77.10
3550;DHT22;45572;48.804;8.330;2023-02-17T04:37:41;12.00;76.90
3550;DHT22;45572;48.804;8.330;2023-02-17T04:40:09;12.00;77.20
3550;DHT22;45572;48.804;8.330;2023-02-17T04:42:37;12.00;77.20
3550;DHT22;45572;48.804;8.330;2023-02-17T04:45:07;12.00;76.90
3550;DHT22;45572;48.804;8.330;2023-02-17T04:47:35;12.10;76.90
3550;DHT22;45572;48.804;8.330;2023-02-17T04:50:04;12.10;77.20
3550;DHT22;45572;48.804;8.330;2023-02-17T04:52:32;12.10;77.40
3550;DHT22;45572;48.804;8.330;2023-02-17T04:54:59;12.10;77.50
3550;DHT22;45572;48.804;8.330;2023-02-17T04:57:27;12.10;77.40
3550;DHT22;45572;48.804;8.330;2023-02-17T04:59:55;12.10;77.40
3550;DHT22;45572;48.804;8.330;2023-02-17T05:02:24;12.10;77.90
3550;DHT22;45572;48.804;8.330;2023-02-17T05:04:52;12.10;77.70
3550;DHT22;45572;48.804;8.330;2023-02-17T05:07:20;12.10;77.70
3550;DHT22;45572;48.804;8.330;2023-02-17T05:09:48;12.10;78.00
3550;DHT22;45572;48.804;8.330;2023-02-17T05:12:16;12.20;77.60
3550;DHT22;45572;48.804;8.330;2023-02-17T05:14:44;12.20;77.80
3550;DHT22;45572;48.804;8.330;2023-02-17T05:17:11;12.20;77.50
3550;DHT22;45572;48.804;8.330;2023-02-17T05:19:40;12.20;77.70
3550;DHT22;45572;48.804;8.330;2023-02-17T05:22:08;12.20;77.70
3550;DHT22;45572;48.804;8.330;2023-02-17T05:24:36;12.20;77.50
3550;DHT22;45572;48.804;8.330;2023-02-17T05:27:04;12.20;77.60
3550;DHT22;45572;48.804;8.330;2023-02-17T05:29:32;12.20;77.70
3550;DHT22;45572;48.804;8.330;2023-02-17T05:32:00;12.20;78.00
3550;DHT22;45572;48.804;8.330;2023-02-17T05:34:29;12.10;79.60
3550;DHT22;45572;48.804;8.330;2023-02-17T05:36:58;11.90;81.80
3550;DHT22;45572;48.804;8.330;2023-02-17T05:39:26;11.70;83.30
3550;DHT22;45572;48.804;8.330;2023-02-17T05:41:53;11.50;84.50
3550;DHT22;45572;48.804;8.330;2023-02-17T05:44:22;11.30;85.60
3550;DHT22;45572;48.804;8.330;2023-02-17T05:46:50;11.10;85.90
3550;DHT22;45572;48.804;8.330;2023-02-17T05:49:17;10.90;86.50
3550;DHT22;45572;48.804;8.330;2023-02-17T05:51:45;10.90;86.40
3550;DHT22;45572;48.804;8.330;2023-02-17T05:54:14;10.90;86.40
3550;DHT22;45572;48.804;8.330;2023-02-17T05:56:42;10.90;86.70
3550;DHT22;45572;48.804;8.330;2023-02-17T05:59:10;10.90;86.10
3550;DHT22;45572;48.804;8.330;2023-02-17T06:01:37;11.00;85.60
3550;DHT22;45572;48.804;8.330;2023-02-17T06:04:05;10.90;84.80
3550;DHT22;45572;48.804;8.330;2023-02-17T06:06:33;11.00;84.80
3550;DHT22;45572;48.804;8.330;2023-02-17T06:09:01;11.00;84.30
3550;DHT22;45572;48.804;8.330;2023-02-17T06:11:30;11.10;84.30
3550;DHT22;45572;48.804;8.330;2023-02-17T06:13:58;11.10;83.90
3550;DHT22;45572;48.804;8.330;2023-02-17T06:16:26;11.20;83.60
3550;DHT22;45572;48.804;8.330;2023-02-17T06:18:54;11.20;83.30
3550;DHT22;45572;48.804;8.330;2023-02-17T06:21:22;11.30;83.40
3550;DHT22;45572;48.804;8.330;2023-02-17T06:23:50;11.30;83.50
3550;DHT22;45572;48.804;8.330;2023-02-17T06:26:17;11.30;83.80
3550;DHT22;45572;48.804;8.330;2023-02-17T06:28:46;11.30;84.00
3550;DHT22;45572;48.804;8.330;2023-02-17T06:31:14;11.20;84.00
3550;DHT22;45572;48.804;8.330;2023-02-17T06:33:42;11.20;84.30
3550;DHT22;45572;48.804;8.330;2023-02-17T06:36:10;11.30;84.50
3550;DHT22;45572;48.804;8.330;2023-02-17T06:38:38;11.40;84.40
3550;DHT22;45572;48.804;8.330;2023-02-17T06:41:05;11.40;84.50
3550;DHT22;45572;48.804;8.330;2023-02-17T06:43:33;11.50;84.40
3550;DHT22;45572;48.804;8.330;2023-02-17T06:46:04;11.50;84.20
3550;DHT22;45572;48.804;8.330;2023-02-17T06:48:33;11.50;84.40
3550;DHT22;45572;48.804;8.330;2023-02-17T06:51:01;11.40;84.30
3550;DHT22;45572;48.804;8.330;2023-02-17T06:53:29;11.50;84.40
3550;DHT22;45572;48.804;8.330;2023-02-17T06:55:57;11.40;84.80
3550;DHT22;45572;48.804;8.330;2023-02-17T06:58:24;11.40;85.30
3550;DHT22;45572;48.804;8.330;2023-02-17T07:00:52;11.50;85.70
3550;DHT22;45572;48.804;8.330;2023-02-17T07:03:21;11.50;85.90
3550;DHT22;45572;48.804;8.330;2023-02-17T07:05:49;11.40;85.10
3550;DHT22;45572;48.804;8.330;2023-02-17T07:08:17;11.50;84.90
3550;DHT22;45572;48.804;8.330;2023-02-17T07:10:45;11.50;84.50
3550;DHT22;45572;48.804;8.330;2023-02-17T07:13:12;11.50;84.40
3550;DHT22;45572;48.804;8.330;2023-02-17T07:15:40;11.60;84.40
3550;DHT22;45572;48.804;8.330;2023-02-17T07:18:08;11.60;84.90
3550;DHT22;45572;48.804;8.330;2023-02-17T07:20:37;11.70;84.40
3550;DHT22;45572;48.804;8.330;2023-02-17T07:23:05;11.80;84.30
3550;DHT22;45572;48.804;8.330;2023-02-17T07:25:33;11.80;83.90
3550;DHT22;45572;48.804;8.330;2023-02-17T07:28:00;11.90;83.70
3550;DHT22;45572;48.804;8.330;2023-02-17T07:30:28;12.00;83.60
3550;DHT22;45572;48.804;8.330;2023-02-17T07:32:56;12.00;83.60
3550;DHT22;45572;48.804;8.330;2023-02-17T07:35:24;12.00;83.60
3550;DHT22;45572;48.804;8.330;2023-02-17T07:37:55;11.90;84.40
3550;DHT22;45572;48.804;8.330;2023-02-17T07:40:26;11.90;83.70
3550;DHT22;45572;48.804;8.330;2023-02-17T07:42:56;12.00;83.20
3550;DHT22;45572;48.804;8.330;2023-02-17T07:45:24;12.00;83.10
3550;DHT22;45572;48.804;8.330;2023-02-17T07:47:52;12.10;83.10
3550;DHT22;45572;48.804;8.330;2023-02-17T07:50:20;12.20;83.30
3550;DHT22;45572;48.804;8.330;2023-02-17T07:52:49;12.30;82.90
3550;DHT22;45572;48.804;8.330;2023-02-17T07:55:18;12.30;83.00
3550;DHT22;45572;48.804;8.330;2023-02-17T07:57:46;12.40;82.80
3550;DHT22;45572;48.804;8.330;2023-02-17T08:00:14;12.40;83.00
3550;DHT22;45572;48.804;8.330;2023-02-17T08:02:43;12.40;83.10
3550;DHT22;45572;48.804;8.330;2023-02-17T08:05:11;12.40;83.50
3550;DHT22;45572;48.804;8.330;2023-02-17T08:07:39;12.30;83.40
3550;DHT22;45572;48.804;8.330;2023-02-17T08:10:11;12.30;83.80
3550;DHT22;45572;48.804;8.330;2023-02-17T08:12:54;12.40;84.40
3550;DHT22;45572;48.804;8.330;2023-02-17T08:15:38;12.40;83.90
3550;DHT22;45572;48.804;8.330;2023-02-17T08:18:09;12.50;83.90
3550;DHT22;45572;48.804;8.330;2023-02-17T08:20:41;12.50;83.50
3550;DHT22;45572;48.804;8.330;2023-02-17T08:23:09;12.40;83.30
3550;DHT22;45572;48.804;8.330;2023-02-17T08:25:37;12.50;83.40
3550;DHT22;45572;48.804;8.330;2023-02-17T08:28:09;12.50;83.00
3550;DHT22;45572;48.804;8.330;2023-02-17T08:30:37;12.50;83.30
3550;DHT22;45572;48.804;8.330;2023-02-17T08:33:05;12.50;83.30
3550;DHT22;45572;48.804;8.330;2023-02-17T08:35:33;12.40;83.50
3550;DHT22;45572;48.804;8.330;2023-02-17T08:38:01;12.40;83.30
3550;DHT22;45572;48.804;8.330;2023-02-17T08:40:30;12.40;83.40
3550;DHT22;45572;48.804;8.330;2023-02-17T08:42:58;12.40;83.20
3550;DHT22;45572;48.804;8.330;2023-02-17T08:45:33;12.40;83.50
3550;DHT22;45572;48.804;8.330;2023-02-17T08:48:02;12.40;83.80
3550;DHT22;45572;48.804;8.330;2023-02-17T08:50:33;12.40;83.90
3550;DHT22;45572;48.804;8.330;2023-02-17T08:53:01;12.50;83.90
3550;DHT22;45572;48.804;8.330;2023-02-17T08:55:29;12.50;83.80
3550;DHT22;45572;48.804;8.330;2023-02-17T08:58:14;12.50;84.20
3550;DHT22;45572;48.804;8.330;2023-02-17T09:00:43;12.40;84.90
3550;DHT22;45572;48.804;8.330;2023-02-17T09:03:10;12.30;85.70
3550;DHT22;45572;48.804;8.330;2023-02-17T09:05:38;12.20;86.10
3550;DHT22;45572;48.804;8.330;2023-02-17T09:08:07;12.20;86.30
3550;DHT22;45572;48.804;8.330;2023-02-17T09:10:36;12.30;86.20
3550;DHT22;45572;48.804;8.330;2023-02-17T09:13:04;12.30;85.90
3550;DHT22;45572;48.804;8.330;2023-02-17T09:15:32;12.20;85.90
3550;DHT22;45572;48.804;8.330;2023-02-17T09:18:01;12.20;85.90
3550;DHT22;45572;48.804;8.330;2023-02-17T09:20:29;12.30;85.80
3550;DHT22;45572;48.804;8.330;2023-02-17T09:22:57;12.20;85.60
3550;DHT22;45572;48.804;8.330;2023-02-17T09:25:24;12.30;85.70
3550;DHT22;45572;48.804;8.330;2023-02-17T09:27:52;12.40;85.40
3550;DHT22;45572;48.804;8.330;2023-02-17T09:30:20;12.40;85.40
3550;DHT22;45572;48.804;8.330;2023-02-17T09:32:48;12.50;85.20
3550;DHT22;45572;48.804;8.330;2023-02-17T09:35:17;12.60;84.90
3550;DHT22;45572;48.804;8.330;2023-02-17T09:37:45;12.50;84.60
3550;DHT22;45572;48.804;8.330;2023-02-17T09:40:16;12.50;84.60
3550;DHT22;45572;48.804;8.330;2023-02-17T09:42:46;12.50;85.10
3550;DHT22;45572;48.804;8.330;2023-02-17T09:45:18;12.60;84.70
3550;DHT22;45572;48.804;8.330;2023-02-17T09:47:50;12.60;84.30
3550;DHT22;45572;48.804;8.330;2023-02-17T09:50:24;12.70;84.40
3550;DHT22;45572;48.804;8.330;2023-02-17T09:52:57;12.80;84.10
3550;DHT22;45572;48.804;8.330;2023-02-17T09:55:30;12.70;83.90
3550;DHT22;45572;48.804;8.330;2023-02-17T09:58:02;12.70;84.00
3550;DHT22;45572;48.804;8.330;2023-02-17T10:00:33;12.70;84.20
3550;DHT22;45572;48.804;8.330;2023-02-17T10:03:09;12.80;84.40
3550;DHT22;45572;48.804;8.330;2023-02-17T10:05:45;12.90;84.50
3550;DHT22;45572;48.804;8.330;2023-02-17T10:08:17;13.10;84.20
3550;DHT22;45572;48.804;8.330;2023-02-17T10:10:49;13.10;84.00
3550;DHT22;45572;48.804;8.330;2023-02-17T10:13:21;13.30;83.70
3550;DHT22;45572;48.804;8.330;2023-02-17T10:15:52;13.30;83.80
3550;DHT22;45572;48.804;8.330;2023-02-17T10:18:32;13.30;83.70
3550;DHT22;45572;48.804;8.330;2023-02-17T10:21:05;13.40;83.70
3550;DHT22;45572;48.804;8.330;2023-02-17T10:23:34;13.40;83.40
3550;DHT22;45572;48.804;8.330;2023-02-17T10:26:11;13.30;83.40
3550;DHT22;45572;48.804;8.330;2023-02-17T10:28:50;13.30;83.40
3550;DHT22;45572;48.804;8.330;2023-02-17T10:31:25;13.30;83.50
3550;DHT22;45572;48.804;8.330;2023-02-17T10:34:00;13.30;83.30
3550;DHT22;45572;48.804;8.330;2023-02-17T10:36:39;13.30;83.70
3550;DHT22;45572;48.804;8.330;2023-02-17T10:39:13;13.40;83.40
3550;DHT22;45572;48.804;8.330;2023-02-17T10:41:43;13.40;83.10
3550;DHT22;45572;48.804;8.330;2023-02-17T10:44:16;13.40;83.40
3550;DHT22;45572;48.804;8.330;2023-02-17T10:46:45;13.50;83.00
3550;DHT22;45572;48.804;8.330;2023-02-17T10:49:21;13.50;82.90
3550;DHT22;45572;48.804;8.330;2023-02-17T10:51:52;13.40;82.90
3550;DHT22;45572;48.804;8.330;2023-02-17T10:54:27;13.40;83.00
3550;DHT22;45572;48.804;8.330;2023-02-17T10:56:57;13.40;83.10
3550;DHT22;45572;48.804;8.330;2023-02-17T10:59:30;13.40;83.10
3550;DHT22;45572;48.804;8.330;2023-02-17T11:02:13;13.40;83.20
3550;DHT22;45572;48.804;8.330;2023-02-17T11:04:42;13.50;82.80
3550;DHT22;45572;48.804;8.330;2023-02-17T11:07:14;13.50;82.60
3550;DHT22;45572;48.804;8.330;2023-02-17T11:09:45;13.60;82.60
3550;DHT22;45572;48.804;8.330;2023-02-17T11:12:15;13.60;82.80
3550;DHT22;45572;48.804;8.330;2023-02-17T11:14:46;13.60;82.80
3550;DHT22;45572;48.804;8.330;2023-02-17T11:17:19;13.60;82.40
3550;DHT22;45572;48.804;8.330;2023-02-17T11:19:58;13.60;82.60
3550;DHT22;45572;48.804;8.330;2023-02-17T11:22:33;13.50;82.80
3550;DHT22;45572;48.804;8.330;2023-02-17T11:25:04;13.60;83.00
3550;DHT22;45572;48.804;8.330;2023-02-17T11:27:33;13.70;83.00
3550;DHT22;45572;48.804;8.330;2023-02-17T11:30:07;13.70;82.30
3550;DHT22;45572;48.804;8.330;2023-02-17T11:32:35;13.70;82.80
3550;DHT22;45572;48.804;8.330;2023-02-17T11:35:03;13.70;83.10
3550;DHT22;45572;48.804;8.330;2023-02-17T11:37:37;13.70;83.10
3550;DHT22;45572;48.804;8.330;2023-02-17T11:40:22;13.70;83.00
3550;DHT22;45572;48.804;8.330;2023-02-17T11:42:55;13.80;82.80
3550;DHT22;45572;48.804;8.330;2023-02-17T11:45:25;13.70;83.00
3550;DHT22;45572;48.804;8.330;2023-02-17T11:48:08;13.60;83.40
3550;DHT22;45572;48.804;8.330;2023-02-17T11:50:45;13.60;83.70
3550;DHT22;45572;48.804;8.330;2023-02-17T11:53:25;13.70;83.40
3550;DHT22;45572;48.804;8.330;2023-02-17T11:56:04;13.80;83.20
3550;DHT22;45572;48.804;8.330;2023-02-17T11:58:52;13.90;83.10
3550;DHT22;45572;48.804;8.330;2023-02-17T12:01:35;13.90;82.90
3550;DHT22;45572;48.804;8.330;2023-02-17T12:04:24;13.90;83.40
3550;DHT22;45572;48.804;8.330;2023-02-17T12:07:02;13.70;83.30
3550;DHT22;45572;48.804;8.330;2023-02-17T12:09:42;13.70;83.60
3550;DHT22;45572;48.804;8.330;2023-02-17T12:12:16;13.60;83.70
3550;DHT22;45572;48.804;8.330;2023-02-17T12:14:57;13.70;83.70
3550;DHT22;45572;48.804;8.330;2023-02-17T12:17:34;13.80;83.50
3550;DHT22;45572;48.804;8.330;2023-02-17T12:20:09;13.80;83.30
3550;DHT22;45572;48.804;8.330;2023-02-17T12:22:45;13.80;83.60
3550;DHT22;45572;48.804;8.330;2023-02-17T12:25:23;13.70;83.50
3550;DHT22;45572;48.804;8.330;2023-02-17T12:28:03;13.60;83.80
3550;DHT22;45572;48.804;8.330;2023-02-17T12:30:45;13.60;84.20
3550;DHT22;45572;48.804;8.330;2023-02-17T12:33:26;13.70;83.90
3550;DHT22;45572;48.804;8.330;2023-02-17T12:36:01;13.70;83.70
3550;DHT22;45572;48.804;8.330;2023-02-17T12:38:31;13.90;83.60
3550;DHT22;45572;48.804;8.330;2023-02-17T12:41:04;14.10;83.60
3550;DHT22;45572;48.804;8.330;2023-02-17T12:43:38;14.20;82.40
3550;DHT22;45572;48.804;8.330;2023-02-17T12:46:10;14.50;82.10
3550;DHT22;45572;48.804;8.330;2023-02-17T12:48:41;14.50;81.70
3550;DHT22;45572;48.804;8.330;2023-02-17T12:51:16;14.60;81.30
3550;DHT22;45572;48.804;8.330;2023-02-17T12:53:47;14.70;81.00
3550;DHT22;45572;48.804;8.330;2023-02-17T12:56:37;14.80;80.60
3550;DHT22;45572;48.804;8.330;2023-02-17T12:59:12;14.90;80.80
3550;DHT22;45572;48.804;8.330;2023-02-17T13:01:47;15.00;80.70
3550;DHT22;45572;48.804;8.330;2023-02-17T13:04:19;15.10;79.90
3550;DHT22;45572;48.804;8.330;2023-02-17T13:06:59;15.10;80.10
3550;DHT22;45572;48.804;8.330;2023-02-17T13:09:31;15.20;79.60
3550;DHT22;45572;48.804;8.330;2023-02-17T13:12:16;15.10;79.60
3550;DHT22;45572;48.804;8.330;2023-02-17T13:14:47;15.00;80.00
3550;DHT22;45572;48.804;8.330;2023-02-17T13:17:24;15.10;79.90
3550;DHT22;45572;48.804;8.330;2023-02-17T13:20:04;15.20;79.90
3550;DHT22;45572;48.804;8.330;2023-02-17T13:22:37;15.20;79.70
3550;DHT22;45572;48.804;8.330;2023-02-17T13:25:06;15.20;79.60
3550;DHT22;45572;48.804;8.330;2023-02-17T13:27:36;15.30;79.60
3550;DHT22;45572;48.804;8.330;2023-02-17T13:30:23;15.50;78.60
3550;DHT22;45572;48.804;8.330;2023-02-17T13:33:00;15.50;79.20
3550;DHT22;45572;48.804;8.330;2023-02-17T13:35:31;15.70;79.20
3550;DHT22;45572;48.804;8.330;2023-02-17T13:38:00;15.80;78.60
3550;DHT22;45572;48.804;8.330;2023-02-17T13:40:34;15.90;78.30
3550;DHT22;45572;48.804;8.330;2023-02-17T13:43:18;15.90;78.40
3550;DHT22;45572;48.804;8.330;2023-02-17T13:45:52;15.80;77.90
3550;DHT22;45572;48.804;8.330;2023-02-17T13:48:25;15.80;78.10
3550;DHT22;45572;48.804;8.330;2023-02-17T13:50:55;15.70;78.80
3550;DHT22;45572;48.804;8.330;2023-02-17T13:53:29;15.50;79.40
3550;DHT22;45572;48.804;8.330;2023-02-17T13:56:00;15.50;79.40
3550;DHT22;45572;48.804;8.330;2023-02-17T13:58:31;15.50;79.80
3550;DHT22;45572;48.804;8.330;2023-02-17T14:01:00;15.50;79.60
3550;DHT22;45572;48.804;8.330;2023-02-17T14:03:34;15.50;79.90
3550;DHT22;45572;48.804;8.330;2023-02-17T14:06:12;15.40;79.60
3550;DHT22;45572;48.804;8.330;2023-02-17T14:08:45;15.30;79.90
3550;DHT22;45572;48.804;8.330;2023-02-17T14:11:17;14.90;80.90
3550;DHT22;45572;48.804;8.330;2023-02-17T14:13:49;15.00;81.10
3550;DHT22;45572;48.804;8.330;2023-02-17T14:16:33;14.90;81.10
3550;DHT22;45572;48.804;8.330;2023-02-17T14:19:03;14.90;81.20
3550;DHT22;45572;48.804;8.330;2023-02-17T14:21:32;14.90;80.90
3550;DHT22;45572;48.804;8.330;2023-02-17T14:24:00;14.90;81.20
3550;DHT22;45572;48.804;8.330;2023-02-17T14:26:31;14.90;81.30
3550;DHT22;45572;48.804;8.330;2023-02-17T14:29:05;14.70;81.00
3550;DHT22;45572;48.804;8.330;2023-02-17T14:31:37;14.70;81.40
3550;DHT22;45572;48.804;8.330;2023-02-17T14:34:05;14.80;81.30
3550;DHT22;45572;48.804;8.330;2023-02-17T14:36:35;14.70;81.20
3550;DHT22;45572;48.804;8.330;2023-02-17T14:39:05;14.80;81.20
3550;DHT22;45572;48.804;8.330;2023-02-17T14:41:33;14.80;81.10
3550;DHT22;45572;48.804;8.330;2023-02-17T14:44:02;14.70;81.00
3550;DHT22;45572;48.804;8.330;2023-02-17T14:46:31;14.70;80.90
3550;DHT22;45572;48.804;8.330;2023-02-17T14:48:59;14.70;81.40
3550;DHT22;45572;48.804;8.330;2023-02-17T14:51:32;14.70;81.20
3550;DHT22;45572;48.804;8.330;2023-02-17T14:54:01;14.80;80.90
3550;DHT22;45572;48.804;8.330;2023-02-17T14:56:32;14.80;81.10
3550;DHT22;45572;48.804;8.330;2023-02-17T14:59:02;14.80;80.90
3550;DHT22;45572;48.804;8.330;2023-02-17T15:01:30;14.80;80.70
3550;DHT22;45572;48.804;8.330;2023-02-17T15:04:00;14.90;81.00
3550;DHT22;45572;48.804;8.330;2023-02-17T15:06:32;14.90;80.80
3550;DHT22;45572;48.804;8.330;2023-02-17T15:09:02;14.90;80.70
3550;DHT22;45572;48.804;8.330;2023-02-17T15:11:32;14.80;80.90
3550;DHT22;45572;48.804;8.330;2023-02-17T15:14:04;14.80;81.10
3550;DHT22;45572;48.804;8.330;2023-02-17T15:16:32;14.80;81.20
3550;DHT22;45572;48.804;8.330;2023-02-17T15:19:00;14.80;80.90
3550;DHT22;45572;48.804;8.330;2023-02-17T15:21:30;14.80;81.30
3550;DHT22;45572;48.804;8.330;2023-02-17T15:23:59;14.80;81.20
3550;DHT22;45572;48.804;8.330;2023-02-17T15:26:29;14.70;81.10
3550;DHT22;45572;48.804;8.330;2023-02-17T15:28:56;14.70;81.40
3550;DHT22;45572;48.804;8.330;2023-02-17T15:31:27;14.70;81.50
3550;DHT22;45572;48.804;8.330;2023-02-17T15:34:08;14.70;81.40
3550;DHT22;45572;48.804;8.330;2023-02-17T15:36:40;14.60;81.70
3550;DHT22;45572;48.804;8.330;2023-02-17T15:39:09;14.60;81.60
3550;DHT22;45572;48.804;8.330;2023-02-17T15:41:38;14.60;81.70
3550;DHT22;45572;48.804;8.330;2023-02-17T15:44:11;14.60;81.80
3550;DHT22;45572;48.804;8.330;2023-02-17T15:46:41;14.60;82.10
3550;DHT22;45572;48.804;8.330;2023-02-17T15:49:12;14.60;81.70
3550;DHT22;45572;48.804;8.330;2023-02-17T15:51:40;14.60;81.70
3550;DHT22;45572;48.804;8.330;2023-02-17T15:54:07;14.50;82.00
3550;DHT22;45572;48.804;8.330;2023-02-17T15:56:39;14.50;82.00
3550;DHT22;45572;48.804;8.330;2023-02-17T15:59:14;14.50;81.90
3550;DHT22;45572;48.804;8.330;2023-02-17T16:01:44;14.50;82.00
3550;DHT22;45572;48.804;8.330;2023-02-17T16:04:13;14.50;82.10
3550;DHT22;45572;48.804;8.330;2023-02-17T16:06:42;14.50;82.20
3550;DHT22;45572;48.804;8.330;2023-02-17T16:09:10;14.50;82.20